createdAt,value
2022-09-16T00:01:57.771Z,2.70
2022-09-16T00:04:24.491Z,1.42
2022-09-16T00:06:51.158Z,1.58
2022-09-16T00:09:17.799Z,1.77
2022-09-16T00:11:44.477Z,1.30
2022-09-16T00:14:11.179Z,1.27
2022-09-16T00:16:37.927Z,2.30
2022-09-16T00:19:04.882Z,1.70
2022-09-16T00:21:31.743Z,1.85
2022-09-16T00:23:58.727Z,1.42
2022-09-16T00:26:27.220Z,1.33
2022-09-16T00:28:53.952Z,1.45
2022-09-16T00:31:20.717Z,1.58
2022-09-16T00:33:47.491Z,1.42
2022-09-16T00:36:16.826Z,1.25
2022-09-16T00:38:44.236Z,1.90
2022-09-16T00:41:19.978Z,2.30
2022-09-16T00:43:47.894Z,3.22
2022-09-16T00:46:15.979Z,2.20
2022-09-16T00:48:43.137Z,1.73
2022-09-16T00:51:13.222Z,2.00
2022-09-16T00:53:45.225Z,1.80
2022-09-16T00:56:14.061Z,1.80
2022-09-16T00:58:43.795Z,1.30
2022-09-16T01:01:11.734Z,1.33
2022-09-16T01:03:44.466Z,1.63
2022-09-16T01:06:13.965Z,2.50
2022-09-16T01:08:43.318Z,2.53
2022-09-16T01:11:10.224Z,1.40
2022-09-16T01:13:38.308Z,1.70
2022-09-16T01:16:12.222Z,1.20
2022-09-16T01:19:13.978Z,1.58
2022-09-16T01:21:51.037Z,1.30
2022-09-16T01:24:54.961Z,1.80
2022-09-16T01:27:51.078Z,1.20
2022-09-16T01:30:43.715Z,1.23
2022-09-16T01:33:43.820Z,1.00
2022-09-16T01:36:10.436Z,1.17
2022-09-16T01:38:49.136Z,1.73
2022-09-16T01:41:36.065Z,1.60
2022-09-16T01:44:16.344Z,1.30
2022-09-16T01:46:43.064Z,1.00
2022-09-16T01:49:30.544Z,0.95
2022-09-16T01:52:40.742Z,1.20
2022-09-16T01:55:13.498Z,0.90
2022-09-16T01:57:51.327Z,1.23
2022-09-16T02:00:18.406Z,1.50
2022-09-16T02:03:03.666Z,1.40
2022-09-16T02:05:42.817Z,1.50
2022-09-16T02:08:25.381Z,0.85
2022-09-16T02:10:56.506Z,1.40
2022-09-16T02:13:42.841Z,1.00
2022-09-16T02:16:23.590Z,0.95
2022-09-16T02:18:56.376Z,1.67
2022-09-16T02:21:26.494Z,1.33
2022-09-16T02:23:57.891Z,1.10
2022-09-16T02:26:32.974Z,1.10
2022-09-16T02:29:01.793Z,1.10
2022-09-16T02:31:36.000Z,0.98
2022-09-16T02:34:11.211Z,1.10
2022-09-16T02:36:42.149Z,1.37
2022-09-16T02:39:11.535Z,1.20
2022-09-16T02:41:40.295Z,1.42
2022-09-16T02:44:08.714Z,1.27
2022-09-16T02:46:55.449Z,1.13
2022-09-16T02:49:42.045Z,1.23
2022-09-16T02:52:15.345Z,1.30
2022-09-16T02:55:19.542Z,0.98
2022-09-16T02:57:46.492Z,1.30
2022-09-16T03:00:13.350Z,1.13
2022-09-16T03:02:40.434Z,1.00
2022-09-16T03:05:07.423Z,1.35
2022-09-16T03:07:34.133Z,1.48
2022-09-16T03:10:00.913Z,1.23
2022-09-16T03:12:36.561Z,1.08
2022-09-16T03:15:14.440Z,1.33
2022-09-16T03:17:54.309Z,1.45
2022-09-16T03:20:41.355Z,0.98
2022-09-16T03:23:36.003Z,1.52
2022-09-16T03:26:25.302Z,1.13
2022-09-16T03:29:12.698Z,1.10
2022-09-16T03:31:45.877Z,1.25
2022-09-16T03:34:42.446Z,1.08
2022-09-16T03:37:12.442Z,1.17
2022-09-16T03:39:41.332Z,1.17
2022-09-16T03:42:11.175Z,0.93
2022-09-16T03:44:40.436Z,0.90
2022-09-16T03:47:08.353Z,1.27
2022-09-16T03:49:35.706Z,1.20
2022-09-16T03:52:04.602Z,1.25
2022-09-16T03:54:31.752Z,1.10
2022-09-16T03:56:58.745Z,1.00
2022-09-16T03:59:25.438Z,1.45
2022-09-16T04:01:52.161Z,1.20
2022-09-16T04:04:19.151Z,1.10
2022-09-16T04:06:45.811Z,1.45
2022-09-16T04:09:13.079Z,0.93
2022-09-16T04:11:40.240Z,1.10
2022-09-16T04:14:07.729Z,0.97
2022-09-16T04:16:34.886Z,1.10
2022-09-16T04:19:01.629Z,1.23
2022-09-16T04:21:29.282Z,1.50
2022-09-16T04:23:56.021Z,1.00
2022-09-16T04:26:22.749Z,1.10
2022-09-16T04:28:51.742Z,1.40
2022-09-16T04:31:18.530Z,1.15
2022-09-16T04:33:45.269Z,1.08
2022-09-16T04:36:17.567Z,1.10
2022-09-16T04:38:45.782Z,1.30
2022-09-16T04:41:14.959Z,1.52
2022-09-16T04:43:42.001Z,1.23
2022-09-16T04:46:09.547Z,1.25
2022-09-16T04:48:36.753Z,0.98
2022-09-16T04:51:08.937Z,1.30
2022-09-16T04:53:37.608Z,1.40
2022-09-16T04:56:15.482Z,0.80
2022-09-16T04:58:50.136Z,1.23
2022-09-16T05:01:22.134Z,1.02
2022-09-16T05:03:51.403Z,0.87
2022-09-16T05:06:21.132Z,1.00
2022-09-16T05:08:49.302Z,1.17
2022-09-16T05:11:21.384Z,1.00
2022-09-16T05:13:48.523Z,0.98
2022-09-16T05:16:18.022Z,0.97
2022-09-16T05:18:47.321Z,1.02
2022-09-16T05:21:16.607Z,1.10
2022-09-16T05:23:47.072Z,1.13
2022-09-16T05:26:17.701Z,1.08
2022-09-16T05:28:44.804Z,0.77
2022-09-16T05:31:17.261Z,0.82
2022-09-16T05:33:56.668Z,0.93
2022-09-16T05:36:24.590Z,1.20
2022-09-16T05:39:18.338Z,1.10
2022-09-16T05:41:38.443Z,1.20
2022-09-16T05:44:06.690Z,1.20
2022-09-16T05:46:33.475Z,1.52
2022-09-16T05:49:00.401Z,1.30
2022-09-16T05:51:27.390Z,1.20
2022-09-16T05:53:55.366Z,1.57
2022-09-16T05:56:25.770Z,1.23
2022-09-16T05:58:57.528Z,1.30
2022-09-16T06:01:27.495Z,1.13
2022-09-16T06:03:57.664Z,1.50
2022-09-16T06:06:26.224Z,1.17
2022-09-16T06:08:55.528Z,1.33
2022-09-16T06:11:23.644Z,1.20
2022-09-16T06:13:58.132Z,0.90
2022-09-16T06:16:26.051Z,1.80
2022-09-16T06:18:57.417Z,1.73
2022-09-16T06:21:24.904Z,1.17
2022-09-16T06:23:52.032Z,1.20
2022-09-16T06:26:22.113Z,1.25
2022-09-16T06:28:49.597Z,1.58
2022-09-16T06:31:19.711Z,1.37
2022-09-16T06:33:47.122Z,1.60
2022-09-16T06:36:17.671Z,0.90
2022-09-16T06:38:45.805Z,1.33
2022-09-16T06:41:14.317Z,1.30
2022-09-16T06:43:41.505Z,1.10
2022-09-16T06:46:17.429Z,1.20
2022-09-16T06:48:46.128Z,1.15
2022-09-16T06:51:16.272Z,0.90
2022-09-16T06:53:44.010Z,1.08
2022-09-16T06:56:17.208Z,1.70
2022-09-16T06:58:50.257Z,1.40
2022-09-16T07:01:28.609Z,1.40
2022-09-16T07:03:57.324Z,1.20
2022-09-16T07:06:49.528Z,1.00
2022-09-16T07:09:14.481Z,1.30
2022-09-16T07:11:41.122Z,1.52
2022-09-16T07:14:09.308Z,1.65
2022-09-16T07:16:36.067Z,1.25
2022-09-16T07:19:04.194Z,1.23
2022-09-16T07:21:31.323Z,0.90
2022-09-16T07:23:59.901Z,0.90
2022-09-16T07:26:29.045Z,1.23
2022-09-16T07:28:56.118Z,1.20
2022-09-16T07:31:28.075Z,0.98
2022-09-16T07:34:01.316Z,1.07
2022-09-16T07:36:33.623Z,1.25
2022-09-16T07:39:01.023Z,1.40
2022-09-16T07:41:30.308Z,1.02
2022-09-16T07:43:59.266Z,1.10
2022-09-16T07:46:28.601Z,1.03
2022-09-16T07:48:56.440Z,1.23
2022-09-16T07:51:24.951Z,1.50
2022-09-16T07:53:59.343Z,1.40
2022-09-16T07:56:28.990Z,1.27
2022-09-16T07:58:57.518Z,0.83
2022-09-16T08:01:25.299Z,1.60
2022-09-16T08:03:52.884Z,1.25
2022-09-16T08:06:22.694Z,1.30
2022-09-16T08:08:53.070Z,1.38
2022-09-16T08:11:20.578Z,1.13
2022-09-16T08:13:47.680Z,1.83
2022-09-16T08:16:17.212Z,1.10
2022-09-16T08:18:45.196Z,1.00
2022-09-16T08:21:15.442Z,0.98
2022-09-16T08:23:42.725Z,1.10
2022-09-16T08:26:10.773Z,1.20
2022-09-16T08:28:57.495Z,1.20
2022-09-16T08:31:28.949Z,1.10
2022-09-16T08:33:56.590Z,1.23
2022-09-16T08:36:24.677Z,1.00
2022-09-16T08:38:54.900Z,1.05
2022-09-16T08:41:37.986Z,1.20
2022-09-16T08:44:38.823Z,1.00
2022-09-16T08:47:13.270Z,1.10
2022-09-16T08:49:46.289Z,1.00
2022-09-16T08:52:18.778Z,1.20
2022-09-16T08:54:49.557Z,1.00
2022-09-16T08:57:23.239Z,0.80
2022-09-16T08:59:55.417Z,1.52
2022-09-16T09:02:58.394Z,1.10
2022-09-16T09:05:51.148Z,1.08
2022-09-16T09:08:55.615Z,1.40
2022-09-16T09:11:38.884Z,0.82
2022-09-16T09:14:20.601Z,1.50
2022-09-16T09:17:24.476Z,1.40
2022-09-16T09:20:11.059Z,1.55
2022-09-16T09:22:57.559Z,1.20
2022-09-16T09:25:27.361Z,1.08
2022-09-16T09:27:59.906Z,1.98
2022-09-16T09:30:28.601Z,1.77
2022-09-16T09:32:58.390Z,1.30
2022-09-16T09:35:30.658Z,1.52
2022-09-16T09:38:32.185Z,1.00
2022-09-16T09:41:06.982Z,1.30
2022-09-16T09:43:56.015Z,1.43
2022-09-16T09:46:38.952Z,1.10
2022-09-16T09:49:26.133Z,1.30
2022-09-16T09:52:04.769Z,1.08
2022-09-16T09:54:35.623Z,1.10
2022-09-16T09:57:14.454Z,1.03
2022-09-16T09:59:50.732Z,1.25
2022-09-16T10:02:22.723Z,1.02
2022-09-16T10:04:49.785Z,1.17
2022-09-16T10:07:20.910Z,1.45
2022-09-16T10:09:59.013Z,1.23
2022-09-16T10:12:32.337Z,1.20
2022-09-16T10:14:59.554Z,1.45
2022-09-16T10:17:29.394Z,1.00
2022-09-16T10:20:31.870Z,0.95
2022-09-16T10:23:10.557Z,1.03
2022-09-16T10:25:37.268Z,0.80
2022-09-16T10:28:18.020Z,0.90
2022-09-16T10:31:03.195Z,0.80
2022-09-16T10:33:34.142Z,0.95
2022-09-16T10:36:05.596Z,0.90
2022-09-16T10:38:46.681Z,1.20
2022-09-16T10:41:21.906Z,1.00
2022-09-16T10:44:30.307Z,0.90
2022-09-16T10:47:00.516Z,1.35
2022-09-16T10:49:50.205Z,1.33
2022-09-16T10:52:28.220Z,1.10
2022-09-16T10:54:55.955Z,0.95
2022-09-16T10:57:35.066Z,1.25
2022-09-16T11:00:21.739Z,0.90
2022-09-16T11:03:07.062Z,1.10
2022-09-16T11:05:42.756Z,1.00
2022-09-16T11:08:38.830Z,1.05
2022-09-16T11:11:34.744Z,1.00
2022-09-16T11:14:27.056Z,1.42
2022-09-16T11:17:19.970Z,0.93
2022-09-16T11:20:00.550Z,1.30
2022-09-16T11:22:43.427Z,1.50
2022-09-16T11:25:46.941Z,0.90
2022-09-16T11:28:16.473Z,1.17
2022-09-16T11:30:57.707Z,1.07
2022-09-16T11:33:59.770Z,1.20
2022-09-16T11:36:55.265Z,1.00
2022-09-16T11:39:38.266Z,1.00
2022-09-16T11:42:10.776Z,1.10
2022-09-16T11:45:14.794Z,0.87
2022-09-16T11:47:56.780Z,0.90
2022-09-16T11:50:48.238Z,0.90
2022-09-16T11:53:53.582Z,0.90
2022-09-16T11:56:40.233Z,1.05
2022-09-16T11:59:12.867Z,1.00
2022-09-16T12:02:43.773Z,0.77
2022-09-16T12:05:19.434Z,1.13
2022-09-16T12:08:02.859Z,0.90
2022-09-16T12:10:43.091Z,1.33
2022-09-16T12:13:16.780Z,1.70
2022-09-16T12:15:52.089Z,1.45
2022-09-16T12:18:43.170Z,1.00
2022-09-16T12:21:14.352Z,1.02
2022-09-16T12:23:45.840Z,2.65
2022-09-16T12:26:21.322Z,1.10
2022-09-16T12:28:55.112Z,1.20
2022-09-16T12:31:46.558Z,1.20
2022-09-16T12:34:26.736Z,1.33
2022-09-16T12:37:05.219Z,1.50
2022-09-16T12:39:31.889Z,1.23
2022-09-16T12:42:07.493Z,1.33
2022-09-16T12:45:06.966Z,1.00
2022-09-16T12:48:00.862Z,1.25
2022-09-16T12:50:54.369Z,1.20
2022-09-16T12:53:49.381Z,0.90
2022-09-16T12:56:48.988Z,1.45
2022-09-16T12:59:51.110Z,1.00
2022-09-16T13:02:26.611Z,1.40
2022-09-16T13:04:57.876Z,1.52
2022-09-16T13:07:29.498Z,1.57
2022-09-16T13:10:17.025Z,1.80
2022-09-16T13:12:51.308Z,1.00
2022-09-16T13:15:38.568Z,1.52
2022-09-16T13:18:28.874Z,1.95
2022-09-16T13:21:02.133Z,1.30
2022-09-16T13:23:35.345Z,1.05
2022-09-16T13:26:06.982Z,1.02
2022-09-16T13:28:39.857Z,1.08
2022-09-16T13:31:12.570Z,1.10
2022-09-16T13:33:44.311Z,2.03
2022-09-16T13:36:19.122Z,1.45
2022-09-16T13:38:49.679Z,0.93
2022-09-16T13:41:29.886Z,1.45
2022-09-16T13:43:56.689Z,1.25
2022-09-16T13:46:34.466Z,1.40
2022-09-16T13:49:10.770Z,1.33
2022-09-16T13:51:47.379Z,1.30
2022-09-16T13:54:30.897Z,1.50
2022-09-16T13:57:21.612Z,1.40
2022-09-16T13:59:57.223Z,1.37
2022-09-16T14:02:42.645Z,1.13
2022-09-16T14:05:47.861Z,1.42
2022-09-16T14:08:26.760Z,1.10
2022-09-16T14:11:19.507Z,1.50
2022-09-16T14:14:04.887Z,1.20
2022-09-16T14:16:34.821Z,1.30
2022-09-16T14:19:08.568Z,1.40
2022-09-16T14:21:35.692Z,1.08
2022-09-16T14:24:35.980Z,1.17
2022-09-16T14:27:02.789Z,1.40
2022-09-16T14:29:29.498Z,1.42
2022-09-16T14:31:57.162Z,1.08
2022-09-16T14:34:28.881Z,1.23
2022-09-16T14:36:56.418Z,0.80
2022-09-16T14:39:25.643Z,1.33
2022-09-16T14:41:59.007Z,1.25
2022-09-16T14:44:28.846Z,1.15
2022-09-16T14:47:09.537Z,1.40
2022-09-16T14:49:42.189Z,1.23
2022-09-16T14:52:22.330Z,1.30
2022-09-16T14:54:50.519Z,1.20
2022-09-16T14:57:23.714Z,1.17
2022-09-16T14:59:52.979Z,1.15
2022-09-16T15:02:23.489Z,1.30
2022-09-16T15:05:12.688Z,1.20
2022-09-16T15:07:56.198Z,2.15
2022-09-16T15:10:39.760Z,1.70
2022-09-16T15:13:18.142Z,1.55
2022-09-16T15:15:49.287Z,1.35
2022-09-16T15:18:32.752Z,1.70
2022-09-16T15:21:02.405Z,1.67
2022-09-16T15:23:29.858Z,1.60
2022-09-16T15:26:18.339Z,1.80
2022-09-16T15:28:57.587Z,1.55
2022-09-16T15:31:36.925Z,1.60
2022-09-16T15:34:20.979Z,1.63
2022-09-16T15:36:47.589Z,2.08
2022-09-16T15:39:38.449Z,1.90
2022-09-16T15:42:18.769Z,1.77
2022-09-16T15:44:51.549Z,1.77
2022-09-16T15:47:38.617Z,1.77
2022-09-16T15:50:19.074Z,1.65
2022-09-16T15:52:55.565Z,1.67
2022-09-16T15:55:28.398Z,1.38
2022-09-16T15:58:02.821Z,1.00
2022-09-16T16:00:59.194Z,1.67
2022-09-16T16:03:27.232Z,1.55
2022-09-16T16:05:54.920Z,1.52
2022-09-16T16:08:43.409Z,1.60
2022-09-16T16:11:18.415Z,1.40
2022-09-16T16:13:45.909Z,1.27
2022-09-16T16:16:14.694Z,1.73
2022-09-16T16:18:43.784Z,1.83
2022-09-16T16:21:16.292Z,1.80
2022-09-16T16:23:43.590Z,1.40
2022-09-16T16:26:11.467Z,1.58
2022-09-16T16:28:38.707Z,2.40
2022-09-16T16:31:10.855Z,1.60
2022-09-16T16:33:40.382Z,1.85
2022-09-16T16:36:12.071Z,1.80
2022-09-16T16:38:40.112Z,2.38
2022-09-16T16:41:08.037Z,1.02
2022-09-16T16:43:34.917Z,1.10
2022-09-16T16:46:01.743Z,1.42
2022-09-16T16:48:29.759Z,2.10
2022-09-16T16:51:03.579Z,1.88
2022-09-16T16:53:31.553Z,1.58
2022-09-16T16:56:06.039Z,1.42
2022-09-16T16:58:35.931Z,1.77
2022-09-16T17:01:10.169Z,1.80
2022-09-16T17:03:36.921Z,1.85
2022-09-16T17:06:04.144Z,1.55
2022-09-16T17:08:30.966Z,1.70
2022-09-16T17:11:07.028Z,1.77
2022-09-16T17:13:34.121Z,1.80
2022-09-16T17:16:00.909Z,1.67
2022-09-16T17:18:27.599Z,1.48
2022-09-16T17:20:54.255Z,2.35
2022-09-16T17:23:20.969Z,2.83
2022-09-16T17:25:50.761Z,1.90
2022-09-16T17:28:17.599Z,1.77
2022-09-16T17:30:44.795Z,2.17
2022-09-16T17:33:11.599Z,2.08
2022-09-16T17:35:38.309Z,1.70
2022-09-16T17:38:07.032Z,1.77
2022-09-16T17:40:34.194Z,1.92
2022-09-16T17:43:00.853Z,1.38
2022-09-16T17:45:27.842Z,2.10
2022-09-16T17:47:57.539Z,1.73
2022-09-16T17:50:24.230Z,1.80
2022-09-16T17:52:51.050Z,2.00
2022-09-16T17:55:18.037Z,2.25
2022-09-16T17:57:44.928Z,1.98
2022-09-16T18:00:12.170Z,2.10
2022-09-16T18:02:41.886Z,2.63
2022-09-16T18:05:08.935Z,2.08
2022-09-16T18:07:35.741Z,2.00
2022-09-16T18:10:02.429Z,2.45
2022-09-16T18:12:29.074Z,2.17
2022-09-16T18:14:55.962Z,2.80
2022-09-16T18:17:22.645Z,2.08
2022-09-16T18:19:49.362Z,1.80
2022-09-16T18:22:16.017Z,1.80
2022-09-16T18:24:42.757Z,3.40
2022-09-16T18:27:09.450Z,3.80
2022-09-16T18:29:36.217Z,3.58
2022-09-16T18:32:02.940Z,3.28
2022-09-16T18:34:33.629Z,1.95
2022-09-16T18:37:00.641Z,5.10
2022-09-16T18:39:27.379Z,5.97
2022-09-16T18:41:54.128Z,4.78
2022-09-16T18:44:25.163Z,4.90
2022-09-16T18:46:53.231Z,2.92
2022-09-16T18:49:22.088Z,2.72
2022-09-16T18:51:52.121Z,3.80
2022-09-16T18:54:27.927Z,4.50
2022-09-16T18:57:00.217Z,3.35
2022-09-16T18:59:29.629Z,3.08
2022-09-16T19:01:59.875Z,2.55
2022-09-16T19:04:32.792Z,2.17
2022-09-16T19:07:05.832Z,1.50
2022-09-16T19:09:33.472Z,1.10
2022-09-16T19:12:01.507Z,1.58
2022-09-16T19:14:28.741Z,2.42
2022-09-16T19:16:55.551Z,1.40
2022-09-16T19:19:22.740Z,2.40
2022-09-16T19:21:49.721Z,1.40
2022-09-16T19:24:19.347Z,1.90
2022-09-16T19:26:47.537Z,1.50
2022-09-16T19:29:15.929Z,1.67
2022-09-16T19:31:44.690Z,1.60
2022-09-16T19:34:12.953Z,1.60
2022-09-16T19:36:40.388Z,1.60
2022-09-16T19:39:08.012Z,1.67
2022-09-16T19:41:37.837Z,9.00
2022-09-16T19:44:07.347Z,2.00
2022-09-16T19:46:36.726Z,3.65
2022-09-16T19:49:05.137Z,2.90
2022-09-16T19:51:33.015Z,2.10
2022-09-16T19:54:00.762Z,2.07
2022-09-16T19:56:30.341Z,3.65
2022-09-16T19:58:57.385Z,2.78
2022-09-16T20:01:26.690Z,2.20
2022-09-16T20:03:53.998Z,2.70
2022-09-16T20:06:27.485Z,2.10
2022-09-16T20:08:59.647Z,1.65
2022-09-16T20:11:29.860Z,2.05
2022-09-16T20:13:59.116Z,1.42
2022-09-16T20:16:32.006Z,4.78
2022-09-16T20:18:58.860Z,1.60
2022-09-16T20:21:27.147Z,3.15
2022-09-16T20:23:54.571Z,2.75
2022-09-16T20:26:22.388Z,4.53
2022-09-16T20:28:53.577Z,2.20
2022-09-16T20:31:22.815Z,2.00
2022-09-16T20:33:50.981Z,1.83
2022-09-16T20:36:20.470Z,2.30
2022-09-16T20:38:48.012Z,1.75
2022-09-16T20:41:17.930Z,2.10
2022-09-16T20:43:45.801Z,2.17
2022-09-16T20:46:13.937Z,1.50
2022-09-16T20:48:41.345Z,1.35
2022-09-16T20:51:14.202Z,1.60
2022-09-16T20:53:41.921Z,3.40
2022-09-16T20:56:12.401Z,3.93
2022-09-16T20:58:39.161Z,1.83
2022-09-16T21:01:14.946Z,1.85
2022-09-16T21:03:42.816Z,2.05
2022-09-16T21:06:12.448Z,1.70
2022-09-16T21:08:39.735Z,3.07
2022-09-16T21:11:17.610Z,2.53
2022-09-16T21:13:46.603Z,2.25
2022-09-16T21:16:15.375Z,1.70
2022-09-16T21:18:42.931Z,3.10
2022-09-16T21:21:13.905Z,2.97
2022-09-16T21:23:41.702Z,2.47
2022-09-16T21:26:20.209Z,3.45
2022-09-16T21:28:58.681Z,3.42
2022-09-16T21:31:28.424Z,2.53
2022-09-16T21:33:56.767Z,2.80
2022-09-16T21:36:24.989Z,2.78
2022-09-16T21:38:51.983Z,3.25
2022-09-16T21:41:21.281Z,1.90
2022-09-16T21:43:51.245Z,1.88
2022-09-16T21:46:22.936Z,2.10
2022-09-16T21:48:50.489Z,2.05
2022-09-16T21:51:19.178Z,2.20
2022-09-16T21:53:47.069Z,1.52
2022-09-16T21:56:24.437Z,2.00
2022-09-16T21:58:54.288Z,1.80
2022-09-16T22:01:24.148Z,2.05
2022-09-16T22:03:55.148Z,1.80
2022-09-16T22:06:23.094Z,2.03
2022-09-16T22:08:50.111Z,3.50
2022-09-16T22:11:18.945Z,2.90
2022-09-16T22:13:46.459Z,2.92
2022-09-16T22:16:15.297Z,1.88
2022-09-16T22:18:42.116Z,2.33
2022-09-16T22:21:10.608Z,3.08
2022-09-16T22:23:39.105Z,2.73
2022-09-16T22:26:15.789Z,2.33
2022-09-16T22:28:42.701Z,2.15
2022-09-16T22:31:12.795Z,1.90
2022-09-16T22:33:41.067Z,2.58
2022-09-16T22:36:13.486Z,3.53
2022-09-16T22:38:44.611Z,2.88
2022-09-16T22:41:11.290Z,5.97
2022-09-16T22:43:39.800Z,3.50
2022-09-16T22:46:31.240Z,3.30
2022-09-16T22:48:59.151Z,2.37
2022-09-16T22:51:27.186Z,3.63
2022-09-16T22:53:54.787Z,2.53
2022-09-16T22:56:25.103Z,2.38
2022-09-16T22:58:53.851Z,2.15
2022-09-16T23:01:23.650Z,2.50
2022-09-16T23:03:55.266Z,2.03
2022-09-16T23:06:24.332Z,2.25
2022-09-16T23:08:52.153Z,2.42
2022-09-16T23:11:21.987Z,2.67
2022-09-16T23:13:50.271Z,2.53
2022-09-16T23:16:19.777Z,2.25
2022-09-16T23:18:47.853Z,2.28
2022-09-16T23:21:17.253Z,4.25
2022-09-16T23:23:46.653Z,3.83
2022-09-16T23:26:19.432Z,5.23
2022-09-16T23:28:47.595Z,3.15
2022-09-16T23:31:16.769Z,2.53
2022-09-16T23:33:44.684Z,3.47
2022-09-16T23:36:13.359Z,2.38
2022-09-16T23:38:41.744Z,2.83
2022-09-16T23:41:11.132Z,3.53
2022-09-16T23:43:39.253Z,4.00
2022-09-16T23:46:06.650Z,4.72
2022-09-16T23:48:34.372Z,3.13
2022-09-16T23:51:01.780Z,2.50
2022-09-16T23:53:28.865Z,2.28
2022-09-16T23:55:55.709Z,1.60
2022-09-16T23:58:22.692Z,2.53
